sensor_id;sensor_type;location;lat;lon;timestamp;P1;durP1;ratioP1;P2;durP2;ratioP2
32790;SDS011;19143;59.322;14.502;2024-01-30T00:00:23;11.40;;;5.57;;
32790;SDS011;19143;59.322;14.502;2024-01-30T00:02:50;29.53;;;5.73;;
32790;SDS011;19143;59.322;14.502;2024-01-30T00:05:18;17.07;;;5.10;;
32790;SDS011;19143;59.322;14.502;2024-01-30T00:07:45;9.17;;;5.10;;
32790;SDS011;19143;59.322;14.502;2024-01-30T00:10:11;22.93;;;5.90;;
32790;SDS011;19143;59.322;14.502;2024-01-30T00:12:38;53.23;;;6.57;;
32790;SDS011;19143;59.322;14.502;2024-01-30T00:15:05;21.40;;;6.23;;
32790;SDS011;19143;59.322;14.502;2024-01-30T00:17:34;15.17;;;5.63;;
32790;SDS011;19143;59.322;14.502;2024-01-30T00:20:01;27.90;;;5.50;;
32790;SDS011;19143;59.322;14.502;2024-01-30T00:22:31;105.10;;;7.90;;
32790;SDS011;19143;59.322;14.502;2024-01-30T00:24:58;28.70;;;4.93;;
32790;SDS011;19143;59.322;14.502;2024-01-30T00:27:25;26.33;;;5.83;;
32790;SDS011;19143;59.322;14.502;2024-01-30T00:29:53;34.17;;;5.20;;
32790;SDS011;19143;59.322;14.502;2024-01-30T00:32:20;76.50;;;6.37;;
32790;SDS011;19143;59.322;14.502;2024-01-30T00:34:48;34.20;;;4.63;;
32790;SDS011;19143;59.322;14.502;2024-01-30T00:37:15;37.20;;;5.50;;
32790;SDS011;19143;59.322;14.502;2024-01-30T00:39:43;44.60;;;5.30;;
32790;SDS011;19143;59.322;14.502;2024-01-30T00:42:09;48.93;;;5.13;;
32790;SDS011;19143;59.322;14.502;2024-01-30T00:44:36;23.60;;;4.27;;
32790;SDS011;19143;59.322;14.502;2024-01-30T00:47:03;39.60;;;4.63;;
32790;SDS011;19143;59.322;14.502;2024-01-30T00:49:30;26.63;;;4.73;;
32790;SDS011;19143;59.322;14.502;2024-01-30T00:51:57;25.90;;;4.47;;
32790;SDS011;19143;59.322;14.502;2024-01-30T00:54:24;82.27;;;6.73;;
32790;SDS011;19143;59.322;14.502;2024-01-30T00:56:52;67.20;;;5.20;;
32790;SDS011;19143;59.322;14.502;2024-01-30T00:59:18;96.77;;;6.17;;
32790;SDS011;19143;59.322;14.502;2024-01-30T01:01:45;29.10;;;4.47;;
32790;SDS011;19143;59.322;14.502;2024-01-30T01:04:12;14.07;;;4.00;;
32790;SDS011;19143;59.322;14.502;2024-01-30T01:06:39;43.17;;;5.10;;
32790;SDS011;19143;59.322;14.502;2024-01-30T01:09:07;84.13;;;6.20;;
32790;SDS011;19143;59.322;14.502;2024-01-30T01:11:34;84.10;;;6.43;;
32790;SDS011;19143;59.322;14.502;2024-01-30T01:14:02;60.40;;;5.77;;
32790;SDS011;19143;59.322;14.502;2024-01-30T01:16:29;58.43;;;5.63;;
32790;SDS011;19143;59.322;14.502;2024-01-30T01:18:55;43.30;;;4.90;;
32790;SDS011;19143;59.322;14.502;2024-01-30T01:21:22;24.60;;;4.13;;
32790;SDS011;19143;59.322;14.502;2024-01-30T01:23:49;98.87;;;6.17;;
32790;SDS011;19143;59.322;14.502;2024-01-30T01:26:16;61.17;;;5.90;;
32790;SDS011;19143;59.322;14.502;2024-01-30T01:28:42;52.37;;;4.97;;
32790;SDS011;19143;59.322;14.502;2024-01-30T01:31:10;45.90;;;4.97;;
32790;SDS011;19143;59.322;14.502;2024-01-30T01:33:37;55.60;;;5.00;;
32790;SDS011;19143;59.322;14.502;2024-01-30T01:36:04;30.73;;;4.83;;
32790;SDS011;19143;59.322;14.502;2024-01-30T01:38:31;33.40;;;4.17;;
32790;SDS011;19143;59.322;14.502;2024-01-30T01:40:58;22.33;;;4.13;;
32790;SDS011;19143;59.322;14.502;2024-01-30T01:43:25;17.20;;;4.10;;
32790;SDS011;19143;59.322;14.502;2024-01-30T01:45:52;62.00;;;4.07;;
32790;SDS011;19143;59.322;14.502;2024-01-30T01:48:20;16.43;;;3.17;;
32790;SDS011;19143;59.322;14.502;2024-01-30T01:50:46;10.57;;;3.53;;
32790;SDS011;19143;59.322;14.502;2024-01-30T01:53:14;16.23;;;3.30;;
32790;SDS011;19143;59.322;14.502;2024-01-30T01:55:42;18.57;;;3.53;;
32790;SDS011;19143;59.322;14.502;2024-01-30T01:58:09;22.03;;;3.23;;
32790;SDS011;19143;59.322;14.502;2024-01-30T02:00:37;9.43;;;3.43;;
32790;SDS011;19143;59.322;14.502;2024-01-30T02:03:06;12.33;;;3.60;;
32790;SDS011;19143;59.322;14.502;2024-01-30T02:05:37;6.77;;;3.13;;
32790;SDS011;19143;59.322;14.502;2024-01-30T02:08:05;11.40;;;3.73;;
32790;SDS011;19143;59.322;14.502;2024-01-30T02:10:33;20.37;;;3.57;;
32790;SDS011;19143;59.322;14.502;2024-01-30T02:12:59;9.57;;;3.37;;
32790;SDS011;19143;59.322;14.502;2024-01-30T02:15:26;9.10;;;3.67;;
32790;SDS011;19143;59.322;14.502;2024-01-30T02:17:54;8.90;;;3.47;;
32790;SDS011;19143;59.322;14.502;2024-01-30T02:20:21;9.17;;;3.50;;
32790;SDS011;19143;59.322;14.502;2024-01-30T02:22:51;12.40;;;3.90;;
32790;SDS011;19143;59.322;14.502;2024-01-30T02:25:20;18.30;;;4.40;;
32790;SDS011;19143;59.322;14.502;2024-01-30T02:27:56;9.47;;;4.47;;
32790;SDS011;19143;59.322;14.502;2024-01-30T02:30:22;16.07;;;4.80;;
32790;SDS011;19143;59.322;14.502;2024-01-30T02:32:49;12.20;;;4.80;;
32790;SDS011;19143;59.322;14.502;2024-01-30T02:35:16;9.97;;;4.50;;
32790;SDS011;19143;59.322;14.502;2024-01-30T02:37:42;9.67;;;4.80;;
32790;SDS011;19143;59.322;14.502;2024-01-30T02:40:10;7.37;;;4.70;;
32790;SDS011;19143;59.322;14.502;2024-01-30T02:42:37;6.80;;;4.17;;
32790;SDS011;19143;59.322;14.502;2024-01-30T02:45:05;11.93;;;4.00;;
32790;SDS011;19143;59.322;14.502;2024-01-30T02:47:32;12.37;;;3.93;;
32790;SDS011;19143;59.322;14.502;2024-01-30T02:49:59;9.87;;;4.20;;
32790;SDS011;19143;59.322;14.502;2024-01-30T02:52:26;5.03;;;4.20;;
32790;SDS011;19143;59.322;14.502;2024-01-30T02:54:52;9.87;;;3.93;;
32790;SDS011;19143;59.322;14.502;2024-01-30T02:57:20;6.77;;;4.43;;
32790;SDS011;19143;59.322;14.502;2024-01-30T02:59:47;4.77;;;3.97;;
32790;SDS011;19143;59.322;14.502;2024-01-30T03:02:14;6.03;;;3.97;;
32790;SDS011;19143;59.322;14.502;2024-01-30T03:04:40;5.13;;;4.17;;
32790;SDS011;19143;59.322;14.502;2024-01-30T03:07:07;4.23;;;3.83;;
32790;SDS011;19143;59.322;14.502;2024-01-30T03:09:34;5.90;;;4.37;;
32790;SDS011;19143;59.322;14.502;2024-01-30T03:12:00;5.67;;;4.23;;
32790;SDS011;19143;59.322;14.502;2024-01-30T03:14:30;4.50;;;4.00;;
32790;SDS011;19143;59.322;14.502;2024-01-30T03:16:57;4.00;;;3.60;;
32790;SDS011;19143;59.322;14.502;2024-01-30T03:19:24;6.17;;;4.20;;
32790;SDS011;19143;59.322;14.502;2024-01-30T03:21:51;4.00;;;3.60;;
32790;SDS011;19143;59.322;14.502;2024-01-30T03:24:17;4.77;;;4.13;;
32790;SDS011;19143;59.322;14.502;2024-01-30T03:26:44;4.90;;;3.97;;
32790;SDS011;19143;59.322;14.502;2024-01-30T03:29:11;6.07;;;4.30;;
32790;SDS011;19143;59.322;14.502;2024-01-30T03:31:39;4.37;;;3.93;;
32790;SDS011;19143;59.322;14.502;2024-01-30T03:34:06;3.83;;;3.53;;
32790;SDS011;19143;59.322;14.502;2024-01-30T03:36:32;4.40;;;4.00;;
32790;SDS011;19143;59.322;14.502;2024-01-30T03:38:59;4.07;;;3.67;;
32790;SDS011;19143;59.322;14.502;2024-01-30T03:41:26;4.60;;;3.87;;
32790;SDS011;19143;59.322;14.502;2024-01-30T03:43:53;4.23;;;3.83;;
32790;SDS011;19143;59.322;14.502;2024-01-30T03:46:20;4.87;;;3.50;;
32790;SDS011;19143;59.322;14.502;2024-01-30T03:48:48;5.80;;;4.27;;
32790;SDS011;19143;59.322;14.502;2024-01-30T03:51:14;5.07;;;4.10;;
32790;SDS011;19143;59.322;14.502;2024-01-30T03:53:41;5.27;;;4.30;;
32790;SDS011;19143;59.322;14.502;2024-01-30T03:56:08;6.50;;;4.47;;
32790;SDS011;19143;59.322;14.502;2024-01-30T03:58:35;6.40;;;4.03;;
32790;SDS011;19143;59.322;14.502;2024-01-30T04:01:02;5.70;;;4.40;;
32790;SDS011;19143;59.322;14.502;2024-01-30T04:03:28;7.67;;;4.27;;
32790;SDS011;19143;59.322;14.502;2024-01-30T04:05:57;4.53;;;4.10;;
32790;SDS011;19143;59.322;14.502;2024-01-30T04:08:24;4.83;;;3.63;;
32790;SDS011;19143;59.322;14.502;2024-01-30T04:10:51;6.17;;;4.23;;
32790;SDS011;19143;59.322;14.502;2024-01-30T04:13:18;5.27;;;3.90;;
32790;SDS011;19143;59.322;14.502;2024-01-30T04:15:44;4.73;;;3.90;;
32790;SDS011;19143;59.322;14.502;2024-01-30T04:18:11;4.73;;;4.23;;
32790;SDS011;19143;59.322;14.502;2024-01-30T04:20:38;4.23;;;3.80;;
32790;SDS011;19143;59.322;14.502;2024-01-30T04:23:06;5.27;;;4.00;;
32790;SDS011;19143;59.322;14.502;2024-01-30T04:25:32;5.47;;;4.23;;
32790;SDS011;19143;59.322;14.502;2024-01-30T04:27:59;4.43;;;3.57;;
32790;SDS011;19143;59.322;14.502;2024-01-30T04:30:26;6.10;;;4.40;;
32790;SDS011;19143;59.322;14.502;2024-01-30T04:32:52;4.10;;;3.80;;
32790;SDS011;19143;59.322;14.502;2024-01-30T04:35:19;5.40;;;4.03;;
32790;SDS011;19143;59.322;14.502;2024-01-30T04:37:48;5.00;;;3.63;;
32790;SDS011;19143;59.322;14.502;2024-01-30T04:40:16;6.57;;;4.53;;
32790;SDS011;19143;59.322;14.502;2024-01-30T04:42:43;5.53;;;4.07;;
32790;SDS011;19143;59.322;14.502;2024-01-30T04:45:11;8.40;;;5.07;;
32790;SDS011;19143;59.322;14.502;2024-01-30T04:47:38;5.53;;;4.00;;
32790;SDS011;19143;59.322;14.502;2024-01-30T04:50:06;46.10;;;6.30;;
32790;SDS011;19143;59.322;14.502;2024-01-30T04:52:33;30.53;;;5.73;;
32790;SDS011;19143;59.322;14.502;2024-01-30T04:55:00;14.03;;;5.17;;
32790;SDS011;19143;59.322;14.502;2024-01-30T04:57:28;41.27;;;5.77;;
32790;SDS011;19143;59.322;14.502;2024-01-30T04:59:56;23.30;;;5.50;;
32790;SDS011;19143;59.322;14.502;2024-01-30T05:02:22;55.03;;;7.03;;
32790;SDS011;19143;59.322;14.502;2024-01-30T05:04:49;13.17;;;5.07;;
32790;SDS011;19143;59.322;14.502;2024-01-30T05:07:16;46.13;;;6.30;;
32790;SDS011;19143;59.322;14.502;2024-01-30T05:09:43;11.03;;;4.40;;
32790;SDS011;19143;59.322;14.502;2024-01-30T05:12:10;7.13;;;4.43;;
32790;SDS011;19143;59.322;14.502;2024-01-30T05:14:38;41.97;;;5.73;;
32790;SDS011;19143;59.322;14.502;2024-01-30T05:17:04;11.83;;;4.60;;
32790;SDS011;19143;59.322;14.502;2024-01-30T05:19:33;8.33;;;4.23;;
32790;SDS011;19143;59.322;14.502;2024-01-30T05:21:59;7.37;;;4.43;;
32790;SDS011;19143;59.322;14.502;2024-01-30T05:24:26;24.17;;;4.73;;
32790;SDS011;19143;59.322;14.502;2024-01-30T05:26:53;6.47;;;4.43;;
32790;SDS011;19143;59.322;14.502;2024-01-30T05:29:19;13.77;;;4.50;;
32790;SDS011;19143;59.322;14.502;2024-01-30T05:31:48;8.13;;;4.90;;
32790;SDS011;19143;59.322;14.502;2024-01-30T05:34:14;6.10;;;4.10;;
32790;SDS011;19143;59.322;14.502;2024-01-30T05:36:41;7.77;;;4.90;;
32790;SDS011;19143;59.322;14.502;2024-01-30T05:39:08;5.73;;;4.37;;
32790;SDS011;19143;59.322;14.502;2024-01-30T05:41:35;6.63;;;4.43;;
32790;SDS011;19143;59.322;14.502;2024-01-30T05:44:02;4.37;;;3.77;;
32790;SDS011;19143;59.322;14.502;2024-01-30T05:46:28;4.73;;;4.30;;
32790;SDS011;19143;59.322;14.502;2024-01-30T05:48:56;5.93;;;3.67;;
32790;SDS011;19143;59.322;14.502;2024-01-30T05:51:23;5.63;;;4.20;;
32790;SDS011;19143;59.322;14.502;2024-01-30T05:53:50;7.67;;;4.90;;
32790;SDS011;19143;59.322;14.502;2024-01-30T05:56:17;9.37;;;5.70;;
32790;SDS011;19143;59.322;14.502;2024-01-30T05:58:43;6.10;;;4.70;;
32790;SDS011;19143;59.322;14.502;2024-01-30T06:01:10;7.57;;;5.40;;
32790;SDS011;19143;59.322;14.502;2024-01-30T06:03:37;8.83;;;5.77;;
32790;SDS011;19143;59.322;14.502;2024-01-30T06:06:05;9.87;;;5.70;;
32790;SDS011;19143;59.322;14.502;2024-01-30T06:08:32;10.83;;;5.33;;
32790;SDS011;19143;59.322;14.502;2024-01-30T06:11:01;9.80;;;5.63;;
32790;SDS011;19143;59.322;14.502;2024-01-30T06:13:29;13.70;;;6.83;;
32790;SDS011;19143;59.322;14.502;2024-01-30T06:15:57;13.47;;;6.50;;
32790;SDS011;19143;59.322;14.502;2024-01-30T06:18:23;15.90;;;7.13;;
32790;SDS011;19143;59.322;14.502;2024-01-30T06:20:52;14.30;;;6.30;;
32790;SDS011;19143;59.322;14.502;2024-01-30T06:23:20;17.47;;;7.27;;
32790;SDS011;19143;59.322;14.502;2024-01-30T06:25:46;24.00;;;7.63;;
32790;SDS011;19143;59.322;14.502;2024-01-30T06:28:13;22.13;;;7.30;;
32790;SDS011;19143;59.322;14.502;2024-01-30T06:30:42;21.50;;;7.30;;
32790;SDS011;19143;59.322;14.502;2024-01-30T06:33:11;21.83;;;8.13;;
32790;SDS011;19143;59.322;14.502;2024-01-30T06:35:38;20.33;;;8.97;;
32790;SDS011;19143;59.322;14.502;2024-01-30T06:38:05;16.97;;;7.30;;
32790;SDS011;19143;59.322;14.502;2024-01-30T06:40:33;18.67;;;7.90;;
32790;SDS011;19143;59.322;14.502;2024-01-30T06:43:00;19.77;;;7.83;;
32790;SDS011;19143;59.322;14.502;2024-01-30T06:45:28;20.70;;;8.27;;
32790;SDS011;19143;59.322;14.502;2024-01-30T06:47:56;15.87;;;7.47;;
32790;SDS011;19143;59.322;14.502;2024-01-30T06:50:23;13.70;;;7.00;;
32790;SDS011;19143;59.322;14.502;2024-01-30T06:52:50;15.17;;;6.83;;
32790;SDS011;19143;59.322;14.502;2024-01-30T06:55:17;20.03;;;7.67;;
32790;SDS011;19143;59.322;14.502;2024-01-30T06:57:49;13.43;;;7.13;;
32790;SDS011;19143;59.322;14.502;2024-01-30T07:00:16;14.87;;;7.13;;
32790;SDS011;19143;59.322;14.502;2024-01-30T07:02:44;12.30;;;7.00;;
32790;SDS011;19143;59.322;14.502;2024-01-30T07:05:11;11.13;;;6.60;;
32790;SDS011;19143;59.322;14.502;2024-01-30T07:07:38;11.83;;;6.70;;
32790;SDS011;19143;59.322;14.502;2024-01-30T07:10:05;12.73;;;6.37;;
32790;SDS011;19143;59.322;14.502;2024-01-30T07:12:33;12.47;;;6.83;;
32790;SDS011;19143;59.322;14.502;2024-01-30T07:15:04;11.73;;;7.37;;
32790;SDS011;19143;59.322;14.502;2024-01-30T07:17:33;10.23;;;6.80;;
32790;SDS011;19143;59.322;14.502;2024-01-30T07:20:00;10.50;;;6.73;;
32790;SDS011;19143;59.322;14.502;2024-01-30T07:22:28;11.23;;;7.57;;
32790;SDS011;19143;59.322;14.502;2024-01-30T07:24:55;11.70;;;6.60;;
32790;SDS011;19143;59.322;14.502;2024-01-30T07:27:23;10.57;;;7.00;;
32790;SDS011;19143;59.322;14.502;2024-01-30T07:29:51;9.20;;;6.57;;
32790;SDS011;19143;59.322;14.502;2024-01-30T07:32:19;9.70;;;6.23;;
32790;SDS011;19143;59.322;14.502;2024-01-30T07:34:46;8.37;;;5.83;;
32790;SDS011;19143;59.322;14.502;2024-01-30T07:37:14;8.37;;;6.00;;
32790;SDS011;19143;59.322;14.502;2024-01-30T07:39:41;8.37;;;5.80;;
32790;SDS011;19143;59.322;14.502;2024-01-30T07:42:09;8.67;;;6.57;;
32790;SDS011;19143;59.322;14.502;2024-01-30T07:44:35;8.93;;;6.17;;
32790;SDS011;19143;59.322;14.502;2024-01-30T07:47:02;8.87;;;6.50;;
32790;SDS011;19143;59.322;14.502;2024-01-30T07:49:31;8.63;;;6.23;;
32790;SDS011;19143;59.322;14.502;2024-01-30T07:52:00;9.23;;;6.67;;
32790;SDS011;19143;59.322;14.502;2024-01-30T07:54:32;10.13;;;6.60;;
32790;SDS011;19143;59.322;14.502;2024-01-30T07:56:59;13.07;;;7.17;;
32790;SDS011;19143;59.322;14.502;2024-01-30T07:59:26;9.80;;;6.40;;
32790;SDS011;19143;59.322;14.502;2024-01-30T08:01:53;10.60;;;6.87;;
32790;SDS011;19143;59.322;14.502;2024-01-30T08:04:19;9.40;;;6.63;;
32790;SDS011;19143;59.322;14.502;2024-01-30T08:06:47;12.00;;;6.67;;
32790;SDS011;19143;59.322;14.502;2024-01-30T08:09:14;9.47;;;6.57;;
32790;SDS011;19143;59.322;14.502;2024-01-30T08:11:41;10.93;;;6.80;;
32790;SDS011;19143;59.322;14.502;2024-01-30T08:14:08;10.83;;;6.50;;
32790;SDS011;19143;59.322;14.502;2024-01-30T08:16:34;7.90;;;6.27;;
32790;SDS011;19143;59.322;14.502;2024-01-30T08:19:01;11.03;;;7.20;;
32790;SDS011;19143;59.322;14.502;2024-01-30T08:21:28;18.93;;;6.97;;
32790;SDS011;19143;59.322;14.502;2024-01-30T08:24:04;10.37;;;6.70;;
32790;SDS011;19143;59.322;14.502;2024-01-30T08:26:32;11.47;;;6.67;;
32790;SDS011;19143;59.322;14.502;2024-01-30T08:29:00;8.67;;;6.40;;
32790;SDS011;19143;59.322;14.502;2024-01-30T08:31:27;10.90;;;7.43;;
32790;SDS011;19143;59.322;14.502;2024-01-30T08:33:54;12.77;;;7.37;;
32790;SDS011;19143;59.322;14.502;2024-01-30T08:36:20;12.63;;;7.43;;
32790;SDS011;19143;59.322;14.502;2024-01-30T08:38:47;10.67;;;6.77;;
32790;SDS011;19143;59.322;14.502;2024-01-30T08:41:15;10.20;;;6.93;;
32790;SDS011;19143;59.322;14.502;2024-01-30T08:43:42;10.87;;;6.63;;
32790;SDS011;19143;59.322;14.502;2024-01-30T08:46:09;15.30;;;7.27;;
32790;SDS011;19143;59.322;14.502;2024-01-30T08:48:36;8.67;;;6.10;;
32790;SDS011;19143;59.322;14.502;2024-01-30T08:51:03;9.10;;;6.30;;
32790;SDS011;19143;59.322;14.502;2024-01-30T08:53:33;8.97;;;6.63;;
32790;SDS011;19143;59.322;14.502;2024-01-30T08:56:00;11.60;;;6.93;;
32790;SDS011;19143;59.322;14.502;2024-01-30T08:58:28;11.43;;;6.40;;
32790;SDS011;19143;59.322;14.502;2024-01-30T09:00:55;6.67;;;5.77;;
32790;SDS011;19143;59.322;14.502;2024-01-30T09:03:22;9.33;;;6.23;;
32790;SDS011;19143;59.322;14.502;2024-01-30T09:05:49;7.97;;;6.30;;
32790;SDS011;19143;59.322;14.502;2024-01-30T09:08:15;11.13;;;6.20;;
32790;SDS011;19143;59.322;14.502;2024-01-30T09:10:42;8.03;;;6.10;;
32790;SDS011;19143;59.322;14.502;2024-01-30T09:13:09;13.83;;;6.63;;
32790;SDS011;19143;59.322;14.502;2024-01-30T09:15:37;10.90;;;7.23;;
32790;SDS011;19143;59.322;14.502;2024-01-30T09:18:04;11.33;;;7.30;;
32790;SDS011;19143;59.322;14.502;2024-01-30T09:20:31;13.63;;;7.13;;
32790;SDS011;19143;59.322;14.502;2024-01-30T09:22:58;15.20;;;7.20;;
32790;SDS011;19143;59.322;14.502;2024-01-30T09:25:25;16.77;;;7.13;;
32790;SDS011;19143;59.322;14.502;2024-01-30T09:27:51;10.40;;;6.87;;
32790;SDS011;19143;59.322;14.502;2024-01-30T09:30:18;12.10;;;6.77;;
32790;SDS011;19143;59.322;14.502;2024-01-30T09:32:46;12.30;;;7.43;;
32790;SDS011;19143;59.322;14.502;2024-01-30T09:35:13;13.20;;;7.33;;
32790;SDS011;19143;59.322;14.502;2024-01-30T09:37:40;15.07;;;8.13;;
32790;SDS011;19143;59.322;14.502;2024-01-30T09:40:07;20.73;;;9.07;;
32790;SDS011;19143;59.322;14.502;2024-01-30T09:42:35;17.70;;;8.73;;
32790;SDS011;19143;59.322;14.502;2024-01-30T09:45:03;22.70;;;8.33;;
32790;SDS011;19143;59.322;14.502;2024-01-30T09:47:31;18.97;;;9.80;;
32790;SDS011;19143;59.322;14.502;2024-01-30T09:49:59;19.33;;;9.30;;
32790;SDS011;19143;59.322;14.502;2024-01-30T09:52:31;26.67;;;11.33;;
32790;SDS011;19143;59.322;14.502;2024-01-30T09:54:57;18.83;;;9.60;;
32790;SDS011;19143;59.322;14.502;2024-01-30T09:57:26;31.27;;;10.87;;
32790;SDS011;19143;59.322;14.502;2024-01-30T09:59:52;23.73;;;9.77;;
32790;SDS011;19143;59.322;14.502;2024-01-30T10:02:20;19.43;;;9.47;;
32790;SDS011;19143;59.322;14.502;2024-01-30T10:04:47;20.77;;;9.57;;
32790;SDS011;19143;59.322;14.502;2024-01-30T10:07:16;19.13;;;8.30;;
32790;SDS011;19143;59.322;14.502;2024-01-30T10:09:44;14.17;;;8.10;;
32790;SDS011;19143;59.322;14.502;2024-01-30T10:12:11;15.33;;;7.97;;
32790;SDS011;19143;59.322;14.502;2024-01-30T10:14:38;11.43;;;7.17;;
32790;SDS011;19143;59.322;14.502;2024-01-30T10:17:05;13.90;;;7.47;;
32790;SDS011;19143;59.322;14.502;2024-01-30T10:19:33;12.27;;;7.17;;
32790;SDS011;19143;59.322;14.502;2024-01-30T10:22:00;14.67;;;7.10;;
32790;SDS011;19143;59.322;14.502;2024-01-30T10:24:28;12.63;;;7.17;;
32790;SDS011;19143;59.322;14.502;2024-01-30T10:26:55;12.37;;;6.97;;
32790;SDS011;19143;59.322;14.502;2024-01-30T10:29:22;13.43;;;7.30;;
32790;SDS011;19143;59.322;14.502;2024-01-30T10:31:57;11.40;;;7.40;;
32790;SDS011;19143;59.322;14.502;2024-01-30T10:34:24;15.97;;;7.40;;
32790;SDS011;19143;59.322;14.502;2024-01-30T10:36:51;11.93;;;7.40;;
32790;SDS011;19143;59.322;14.502;2024-01-30T10:39:25;13.87;;;7.67;;
32790;SDS011;19143;59.322;14.502;2024-01-30T10:41:59;13.90;;;7.27;;
32790;SDS011;19143;59.322;14.502;2024-01-30T10:44:33;12.73;;;7.63;;
32790;SDS011;19143;59.322;14.502;2024-01-30T10:47:06;13.30;;;7.40;;
32790;SDS011;19143;59.322;14.502;2024-01-30T10:49:36;10.90;;;6.70;;
32790;SDS011;19143;59.322;14.502;2024-01-30T10:52:06;12.20;;;6.67;;
32790;SDS011;19143;59.322;14.502;2024-01-30T10:54:54;9.30;;;6.07;;
32790;SDS011;19143;59.322;14.502;2024-01-30T10:57:20;14.07;;;6.60;;
32790;SDS011;19143;59.322;14.502;2024-01-30T10:59:49;10.87;;;5.90;;
32790;SDS011;19143;59.322;14.502;2024-01-30T11:02:19;8.40;;;5.67;;
32790;SDS011;19143;59.322;14.502;2024-01-30T11:04:46;13.13;;;5.90;;
32790;SDS011;19143;59.322;14.502;2024-01-30T11:07:16;9.13;;;5.67;;
32790;SDS011;19143;59.322;14.502;2024-01-30T11:09:54;10.07;;;6.23;;
32790;SDS011;19143;59.322;14.502;2024-01-30T11:12:29;15.73;;;7.10;;
32790;SDS011;19143;59.322;14.502;2024-01-30T11:15:01;10.93;;;7.03;;
32790;SDS011;19143;59.322;14.502;2024-01-30T11:17:39;12.27;;;6.60;;
32790;SDS011;19143;59.322;14.502;2024-01-30T11:20:09;13.47;;;6.80;;
32790;SDS011;19143;59.322;14.502;2024-01-30T11:22:38;12.13;;;6.83;;
32790;SDS011;19143;59.322;14.502;2024-01-30T11:25:12;15.13;;;6.87;;
32790;SDS011;19143;59.322;14.502;2024-01-30T11:27:39;17.73;;;7.17;;
32790;SDS011;19143;59.322;14.502;2024-01-30T11:30:08;10.90;;;6.50;;
32790;SDS011;19143;59.322;14.502;2024-01-30T11:32:35;12.37;;;6.53;;
32790;SDS011;19143;59.322;14.502;2024-01-30T11:35:03;18.07;;;7.73;;
32790;SDS011;19143;59.322;14.502;2024-01-30T11:37:31;12.10;;;6.63;;
32790;SDS011;19143;59.322;14.502;2024-01-30T11:39:58;15.03;;;7.23;;
32790;SDS011;19143;59.322;14.502;2024-01-30T11:42:26;12.37;;;7.53;;
32790;SDS011;19143;59.322;14.502;2024-01-30T11:44:53;14.47;;;7.60;;
32790;SDS011;19143;59.322;14.502;2024-01-30T11:47:20;11.73;;;7.67;;
32790;SDS011;19143;59.322;14.502;2024-01-30T11:49:48;14.87;;;8.10;;
32790;SDS011;19143;59.322;14.502;2024-01-30T11:52:15;13.63;;;7.70;;
32790;SDS011;19143;59.322;14.502;2024-01-30T11:54:42;16.77;;;8.37;;
32790;SDS011;19143;59.322;14.502;2024-01-30T11:57:09;15.23;;;8.07;;
32790;SDS011;19143;59.322;14.502;2024-01-30T11:59:37;14.77;;;7.93;;
32790;SDS011;19143;59.322;14.502;2024-01-30T12:02:04;11.73;;;6.73;;
32790;SDS011;19143;59.322;14.502;2024-01-30T12:04:30;12.57;;;6.70;;
32790;SDS011;19143;59.322;14.502;2024-01-30T12:06:57;11.33;;;6.73;;
32790;SDS011;19143;59.322;14.502;2024-01-30T12:09:24;16.87;;;7.90;;
32790;SDS011;19143;59.322;14.502;2024-01-30T12:11:53;10.87;;;7.07;;
32790;SDS011;19143;59.322;14.502;2024-01-30T12:14:19;14.57;;;7.73;;
32790;SDS011;19143;59.322;14.502;2024-01-30T12:16:49;15.47;;;8.13;;
32790;SDS011;19143;59.322;14.502;2024-01-30T12:19:22;14.20;;;7.13;;
32790;SDS011;19143;59.322;14.502;2024-01-30T12:21:53;11.83;;;6.80;;
32790;SDS011;19143;59.322;14.502;2024-01-30T12:24:21;12.53;;;6.87;;
32790;SDS011;19143;59.322;14.502;2024-01-30T12:26:48;11.00;;;6.43;;
32790;SDS011;19143;59.322;14.502;2024-01-30T12:29:15;13.27;;;6.87;;
32790;SDS011;19143;59.322;14.502;2024-01-30T12:31:41;14.30;;;6.80;;
32790;SDS011;19143;59.322;14.502;2024-01-30T12:34:10;14.00;;;7.67;;
32790;SDS011;19143;59.322;14.502;2024-01-30T12:36:40;13.70;;;7.60;;
32790;SDS011;19143;59.322;14.502;2024-01-30T12:39:10;16.23;;;6.83;;
32790;SDS011;19143;59.322;14.502;2024-01-30T12:41:37;13.93;;;7.10;;
32790;SDS011;19143;59.322;14.502;2024-01-30T12:44:04;16.63;;;7.83;;
32790;SDS011;19143;59.322;14.502;2024-01-30T12:46:31;16.93;;;9.10;;
32790;SDS011;19143;59.322;14.502;2024-01-30T12:48:58;16.83;;;8.20;;
32790;SDS011;19143;59.322;14.502;2024-01-30T12:51:26;23.00;;;9.87;;
32790;SDS011;19143;59.322;14.502;2024-01-30T12:53:52;29.77;;;16.37;;
32790;SDS011;19143;59.322;14.502;2024-01-30T12:56:19;19.87;;;10.93;;
32790;SDS011;19143;59.322;14.502;2024-01-30T12:58:46;12.97;;;7.70;;
32790;SDS011;19143;59.322;14.502;2024-01-30T13:01:12;11.87;;;6.70;;
32790;SDS011;19143;59.322;14.502;2024-01-30T13:03:39;29.83;;;7.17;;
32790;SDS011;19143;59.322;14.502;2024-01-30T13:06:06;21.87;;;7.53;;
32790;SDS011;19143;59.322;14.502;2024-01-30T13:08:34;20.27;;;7.10;;
32790;SDS011;19143;59.322;14.502;2024-01-30T13:11:01;29.33;;;7.60;;
32790;SDS011;19143;59.322;14.502;2024-01-30T13:13:27;18.77;;;7.90;;
32790;SDS011;19143;59.322;14.502;2024-01-30T13:15:54;20.53;;;7.17;;
32790;SDS011;19143;59.322;14.502;2024-01-30T13:18:21;22.73;;;8.17;;
32790;SDS011;19143;59.322;14.502;2024-01-30T13:20:47;25.70;;;9.93;;
32790;SDS011;19143;59.322;14.502;2024-01-30T13:23:14;19.67;;;10.10;;
32790;SDS011;19143;59.322;14.502;2024-01-30T13:25:42;22.87;;;9.30;;
32790;SDS011;19143;59.322;14.502;2024-01-30T13:28:09;16.67;;;6.20;;
32790;SDS011;19143;59.322;14.502;2024-01-30T13:30:36;12.23;;;6.13;;
32790;SDS011;19143;59.322;14.502;2024-01-30T13:33:03;10.70;;;6.43;;
32790;SDS011;19143;59.322;14.502;2024-01-30T13:35:30;8.43;;;5.87;;
32790;SDS011;19143;59.322;14.502;2024-01-30T13:37:56;8.03;;;5.60;;
32790;SDS011;19143;59.322;14.502;2024-01-30T13:40:23;7.20;;;5.37;;
32790;SDS011;19143;59.322;14.502;2024-01-30T13:42:51;7.43;;;5.47;;
32790;SDS011;19143;59.322;14.502;2024-01-30T13:45:18;5.93;;;4.73;;
32790;SDS011;19143;59.322;14.502;2024-01-30T13:47:44;17.10;;;10.00;;
32790;SDS011;19143;59.322;14.502;2024-01-30T13:50:11;19.33;;;11.80;;
32790;SDS011;19143;59.322;14.502;2024-01-30T13:52:40;19.20;;;12.13;;
32790;SDS011;19143;59.322;14.502;2024-01-30T13:55:07;13.30;;;8.20;;
32790;SDS011;19143;59.322;14.502;2024-01-30T13:57:34;7.90;;;5.93;;
32790;SDS011;19143;59.322;14.502;2024-01-30T14:00:02;7.53;;;5.60;;
32790;SDS011;19143;59.322;14.502;2024-01-30T14:02:31;7.77;;;5.67;;
32790;SDS011;19143;59.322;14.502;2024-01-30T14:04:58;8.13;;;6.27;;
32790;SDS011;19143;59.322;14.502;2024-01-30T14:07:24;6.33;;;5.10;;
32790;SDS011;19143;59.322;14.502;2024-01-30T14:09:51;4.73;;;4.03;;
32790;SDS011;19143;59.322;14.502;2024-01-30T14:12:18;4.60;;;3.87;;
32790;SDS011;19143;59.322;14.502;2024-01-30T14:14:44;3.93;;;3.53;;
32790;SDS011;19143;59.322;14.502;2024-01-30T14:17:12;4.43;;;4.03;;
32790;SDS011;19143;59.322;14.502;2024-01-30T14:19:39;4.87;;;3.10;;
32790;SDS011;19143;59.322;14.502;2024-01-30T14:22:06;3.30;;;3.10;;
32790;SDS011;19143;59.322;14.502;2024-01-30T14:24:33;2.90;;;2.70;;
32790;SDS011;19143;59.322;14.502;2024-01-30T14:26:59;3.13;;;2.70;;